createdAt,value
2022-09-04T00:02:02.438Z,19.10
2022-09-04T00:04:37.495Z,19.00
2022-09-04T00:07:17.616Z,19.00
2022-09-04T00:09:56.163Z,19.00
2022-09-04T00:12:31.292Z,18.90
2022-09-04T00:15:03.994Z,18.90
2022-09-04T00:17:39.760Z,18.90
2022-09-04T00:20:13.082Z,18.90
2022-09-04T00:22:52.362Z,18.90
2022-09-04T00:25:27.068Z,18.80
2022-09-04T00:28:06.055Z,18.80
2022-09-04T00:30:37.257Z,18.80
2022-09-04T00:33:15.463Z,18.70
2022-09-04T00:35:50.849Z,18.70
2022-09-04T00:38:32.302Z,18.60
2022-09-04T00:41:10.452Z,18.60
2022-09-04T00:44:13.761Z,18.60
2022-09-04T00:47:06.883Z,18.50
2022-09-04T00:50:11.999Z,18.40
2022-09-04T00:53:09.597Z,18.40
2022-09-04T00:55:54.090Z,18.30
2022-09-04T00:58:51.245Z,18.20
2022-09-04T01:01:24.650Z,18.20
2022-09-04T01:04:13.391Z,18.20
2022-09-04T01:06:47.448Z,18.20
2022-09-04T01:09:33.291Z,18.20
2022-09-04T01:12:09.714Z,18.20
2022-09-04T01:14:43.213Z,18.10
2022-09-04T01:17:23.181Z,18.10
2022-09-04T01:19:57.374Z,18.10
2022-09-04T01:22:51.155Z,18.10
2022-09-04T01:25:35.676Z,18.10
2022-09-04T01:28:10.612Z,18.10
2022-09-04T01:30:46.815Z,18.00
2022-09-04T01:33:23.864Z,18.00
2022-09-04T01:35:59.083Z,18.00
2022-09-04T01:38:34.725Z,18.00
2022-09-04T01:41:08.595Z,18.00
2022-09-04T01:43:37.878Z,18.00
2022-09-04T01:46:28.313Z,18.00
2022-09-04T01:49:04.494Z,18.00
2022-09-04T01:51:41.268Z,18.00
2022-09-04T01:54:20.987Z,18.00
2022-09-04T01:57:00.108Z,18.00
2022-09-04T01:59:35.727Z,17.90
2022-09-04T02:02:13.410Z,17.90
2022-09-04T02:04:49.281Z,17.90
2022-09-04T02:07:29.114Z,17.90
2022-09-04T02:10:07.878Z,17.80
2022-09-04T02:12:46.199Z,17.80
2022-09-04T02:15:30.780Z,17.80
2022-09-04T02:18:11.600Z,17.70
2022-09-04T02:20:45.423Z,17.70
2022-09-04T02:23:19.632Z,17.60
2022-09-04T02:25:54.369Z,17.60
2022-09-04T02:28:30.992Z,17.50
2022-09-04T02:31:10.684Z,17.50
2022-09-04T02:33:46.291Z,17.40
2022-09-04T02:36:22.494Z,17.40
2022-09-04T02:38:59.873Z,17.30
2022-09-04T02:41:38.808Z,17.30
2022-09-04T02:44:22.816Z,17.20
2022-09-04T02:47:01.212Z,17.20
2022-09-04T02:49:38.589Z,17.20
2022-09-04T02:52:18.172Z,17.20
2022-09-04T02:54:58.829Z,17.30
2022-09-04T02:57:39.481Z,17.30
2022-09-04T03:00:14.961Z,17.30
2022-09-04T03:02:52.705Z,17.30
2022-09-04T03:05:24.091Z,17.30
2022-09-04T03:07:59.643Z,17.30
2022-09-04T03:10:32.211Z,17.30
2022-09-04T03:13:06.875Z,17.30
2022-09-04T03:15:41.568Z,17.30
2022-09-04T03:18:19.113Z,17.30
2022-09-04T03:20:54.974Z,17.30
2022-09-04T03:23:29.873Z,17.30
2022-09-04T03:26:22.813Z,17.30
2022-09-04T03:29:04.325Z,17.30
2022-09-04T03:31:39.796Z,17.30
2022-09-04T03:34:19.771Z,17.30
2022-09-04T03:37:07.302Z,17.30
2022-09-04T03:39:43.278Z,17.30
2022-09-04T03:42:19.940Z,17.30
2022-09-04T03:44:59.656Z,17.30
2022-09-04T03:47:38.507Z,17.30
2022-09-04T03:50:19.122Z,17.30
2022-09-04T03:52:58.764Z,17.30
2022-09-04T03:55:47.987Z,17.30
2022-09-04T03:58:24.469Z,17.30
2022-09-04T04:01:00.905Z,17.30
2022-09-04T04:03:43.716Z,17.30
2022-09-04T04:06:24.301Z,17.30
2022-09-04T04:09:25.013Z,17.20
2022-09-04T04:12:10.620Z,17.20
2022-09-04T04:14:51.398Z,17.20
2022-09-04T04:17:35.964Z,17.20
2022-09-04T04:20:14.746Z,17.10
2022-09-04T04:23:05.549Z,17.10
2022-09-04T04:26:05.706Z,17.10
2022-09-04T04:29:00.250Z,17.10
2022-09-04T04:32:09.072Z,17.10
2022-09-04T04:34:48.963Z,17.10
2022-09-04T04:37:31.509Z,17.10
2022-09-04T04:40:07.012Z,17.10
2022-09-04T04:42:42.342Z,17.10
2022-09-04T04:45:48.040Z,17.10
2022-09-04T04:49:00.094Z,17.00
2022-09-04T04:51:57.201Z,16.90
2022-09-04T04:54:44.276Z,16.90
2022-09-04T04:57:23.195Z,16.90
2022-09-04T04:59:58.299Z,16.90
2022-09-04T05:02:31.710Z,16.90
2022-09-04T05:05:05.386Z,16.80
2022-09-04T05:07:41.946Z,16.80
2022-09-04T05:10:18.279Z,16.80
2022-09-04T05:13:08.679Z,16.90
2022-09-04T05:16:07.469Z,17.20
2022-09-04T05:18:36.314Z,17.80
2022-09-04T05:21:13.738Z,18.50
2022-09-04T05:23:49.589Z,18.80
2022-09-04T05:26:26.834Z,18.60
2022-09-04T05:29:02.315Z,18.40
2022-09-04T05:31:38.956Z,18.10
2022-09-04T05:34:12.918Z,17.90
2022-09-04T05:36:52.868Z,18.00
2022-09-04T05:39:30.269Z,18.10
2022-09-04T05:42:12.472Z,18.20
2022-09-04T05:44:57.291Z,18.50
2022-09-04T05:47:38.270Z,18.80
2022-09-04T05:50:22.623Z,18.70
2022-09-04T05:53:18.588Z,18.50
2022-09-04T05:56:10.122Z,18.30
2022-09-04T05:58:58.933Z,18.10
2022-09-04T06:01:52.237Z,18.00
2022-09-04T06:04:37.816Z,17.90
2022-09-04T06:07:13.321Z,17.80
2022-09-04T06:09:55.250Z,17.80
2022-09-04T06:12:41.447Z,17.70
2022-09-04T06:15:22.895Z,17.70
2022-09-04T06:18:23.421Z,17.70
2022-09-04T06:21:06.551Z,17.70
2022-09-04T06:24:00.280Z,17.70
2022-09-04T06:26:44.817Z,17.70
2022-09-04T06:29:41.838Z,17.80
2022-09-04T06:32:42.867Z,17.80
2022-09-04T06:35:26.631Z,17.80
2022-09-04T06:38:08.087Z,17.90
2022-09-04T06:40:49.634Z,17.90
2022-09-04T06:43:29.473Z,18.00
2022-09-04T06:46:08.037Z,18.00
2022-09-04T06:48:47.190Z,18.10
2022-09-04T06:51:33.552Z,18.10
2022-09-04T06:54:16.239Z,18.20
2022-09-04T06:57:03.766Z,18.20
2022-09-04T06:59:43.412Z,18.30
2022-09-04T07:02:22.457Z,18.40
2022-09-04T07:05:04.973Z,18.40
2022-09-04T07:07:43.704Z,18.40
2022-09-04T07:10:14.961Z,18.50
2022-09-04T07:13:09.862Z,18.50
2022-09-04T07:16:06.887Z,18.60
2022-09-04T07:19:07.809Z,18.70
2022-09-04T07:21:42.712Z,18.70
2022-09-04T07:24:36.357Z,18.70
2022-09-04T07:27:14.014Z,18.80
2022-09-04T07:29:48.642Z,18.80
2022-09-04T07:32:22.137Z,18.90
2022-09-04T07:34:56.132Z,18.90
2022-09-04T07:37:30.832Z,18.90
2022-09-04T07:40:12.856Z,19.00
2022-09-04T07:42:46.177Z,19.00
2022-09-04T07:45:27.823Z,19.10
2022-09-04T07:48:06.877Z,19.20
2022-09-04T07:50:40.233Z,19.20
2022-09-04T07:53:26.111Z,19.30
2022-09-04T07:56:01.779Z,19.30
2022-09-04T07:59:04.410Z,19.40
2022-09-04T08:01:45.034Z,19.50
2022-09-04T08:04:34.310Z,19.50
2022-09-04T08:07:09.445Z,19.60
2022-09-04T08:09:57.800Z,19.60
2022-09-04T08:12:56.281Z,19.60
2022-09-04T08:15:35.439Z,19.70
2022-09-04T08:18:29.016Z,19.80
2022-09-04T08:21:10.090Z,19.80
2022-09-04T08:24:02.762Z,19.90
2022-09-04T08:26:41.050Z,20.00
2022-09-04T08:29:27.259Z,20.00
2022-09-04T08:32:10.392Z,20.10
2022-09-04T08:35:02.337Z,20.20
2022-09-04T08:37:39.959Z,20.20
2022-09-04T08:40:46.564Z,20.20
2022-09-04T08:43:50.015Z,20.30
2022-09-04T08:46:49.355Z,20.30
2022-09-04T08:49:53.998Z,20.40
2022-09-04T08:52:42.454Z,20.40
2022-09-04T08:55:41.011Z,20.50
2022-09-04T08:58:34.478Z,20.50
2022-09-04T09:01:38.346Z,20.60
2022-09-04T09:04:59.995Z,20.60
2022-09-04T09:08:04.507Z,20.70
2022-09-04T09:10:51.933Z,20.70
2022-09-04T09:14:02.036Z,20.80
2022-09-04T09:16:43.144Z,20.90
2022-09-04T09:19:23.105Z,21.00
2022-09-04T09:22:10.323Z,21.10
2022-09-04T09:25:20.829Z,21.20
2022-09-04T09:28:27.948Z,21.30
2022-09-04T09:31:30.639Z,21.30
2022-09-04T09:34:37.987Z,21.30
2022-09-04T09:37:35.174Z,21.40
2022-09-04T09:40:37.001Z,21.40
2022-09-04T09:43:28.202Z,21.50
2022-09-04T09:46:34.798Z,21.50
2022-09-04T09:49:38.295Z,21.60
2022-09-04T09:53:00.620Z,21.60
2022-09-04T09:56:08.306Z,21.70
2022-09-04T09:58:56.207Z,21.80
2022-09-04T10:01:49.368Z,21.80
2022-09-04T10:04:45.040Z,21.80
2022-09-04T10:07:49.543Z,21.90
2022-09-04T10:11:01.479Z,21.90
2022-09-04T10:13:57.289Z,21.90
2022-09-04T10:16:49.978Z,21.90
2022-09-04T10:19:49.217Z,21.90
2022-09-04T10:22:42.189Z,22.00
2022-09-04T10:25:55.462Z,22.10
2022-09-04T10:28:59.525Z,22.10
2022-09-04T10:32:02.938Z,22.20
2022-09-04T10:35:15.909Z,22.20
2022-09-04T10:38:10.176Z,22.30
2022-09-04T10:40:51.315Z,22.40
2022-09-04T10:43:47.535Z,22.50
2022-09-04T10:46:23.042Z,22.60
2022-09-04T10:49:16.430Z,22.60
2022-09-04T10:52:10.110Z,22.70
2022-09-04T10:55:02.772Z,22.70
2022-09-04T10:57:48.956Z,22.80
2022-09-04T11:00:19.780Z,22.90
2022-09-04T11:03:31.084Z,23.00
2022-09-04T11:06:36.575Z,23.00
2022-09-04T11:09:23.267Z,23.10
2022-09-04T11:12:13.079Z,23.20
2022-09-04T11:15:19.134Z,23.50
2022-09-04T11:18:19.280Z,23.90
2022-09-04T11:21:27.208Z,24.20
2022-09-04T11:24:47.190Z,24.50
2022-09-04T11:28:07.474Z,24.80
2022-09-04T11:30:53.816Z,24.90
2022-09-04T11:34:01.421Z,25.00
2022-09-04T11:37:12.141Z,25.10
2022-09-04T11:40:06.369Z,25.20
2022-09-04T11:42:41.528Z,25.40
2022-09-04T11:45:43.269Z,25.50
2022-09-04T11:48:42.248Z,25.60
2022-09-04T11:51:40.483Z,25.60
2022-09-04T11:54:46.027Z,25.70
2022-09-04T11:57:24.071Z,25.80
2022-09-04T12:00:17.009Z,25.80
2022-09-04T12:03:27.876Z,25.90
2022-09-04T12:06:14.337Z,26.00
2022-09-04T12:09:11.638Z,26.10
2022-09-04T12:12:16.506Z,26.10
2022-09-04T12:15:17.056Z,26.10
2022-09-04T12:18:23.314Z,26.10
2022-09-04T12:21:14.287Z,26.20
2022-09-04T12:24:09.905Z,26.10
2022-09-04T12:27:05.430Z,26.10
2022-09-04T12:30:09.936Z,26.10
2022-09-04T12:33:20.367Z,26.10
2022-09-04T12:36:19.111Z,26.10
2022-09-04T12:39:16.120Z,26.10
2022-09-04T12:41:56.235Z,26.20
2022-09-04T12:44:37.085Z,26.20
2022-09-04T12:47:18.411Z,26.20
2022-09-04T12:50:10.130Z,26.20
2022-09-04T12:52:52.670Z,26.20
2022-09-04T12:55:33.560Z,26.20
2022-09-04T12:58:14.072Z,26.20
2022-09-04T13:00:50.753Z,26.20
2022-09-04T13:03:25.366Z,26.20
2022-09-04T13:06:10.880Z,26.20
2022-09-04T13:08:50.492Z,26.20
2022-09-04T13:11:34.745Z,26.20
2022-09-04T13:14:20.987Z,26.10
2022-09-04T13:16:56.549Z,26.10
2022-09-04T13:19:29.568Z,26.00
2022-09-04T13:22:11.290Z,26.00
2022-09-04T13:24:53.064Z,26.00
2022-09-04T13:27:34.176Z,26.00
2022-09-04T13:30:07.856Z,26.00
2022-09-04T13:33:08.449Z,25.90
2022-09-04T13:35:55.258Z,25.90
2022-09-04T13:39:06.664Z,25.90
2022-09-04T13:42:07.926Z,25.80
2022-09-04T13:45:05.640Z,25.80
2022-09-04T13:47:40.859Z,25.80
2022-09-04T13:50:17.239Z,25.80
2022-09-04T13:52:52.078Z,25.80
2022-09-04T13:55:24.376Z,25.80
2022-09-04T13:57:59.896Z,25.80
2022-09-04T14:00:31.206Z,25.80
2022-09-04T14:03:04.926Z,25.80
2022-09-04T14:05:37.503Z,25.80
2022-09-04T14:08:08.798Z,25.70
2022-09-04T14:11:03.303Z,25.70
2022-09-04T14:13:42.711Z,25.70
2022-09-04T14:16:14.457Z,25.70
2022-09-04T14:19:12.226Z,25.70
2022-09-04T14:22:02.400Z,25.70
2022-09-04T14:24:37.732Z,25.70
2022-09-04T14:27:14.836Z,25.70
2022-09-04T14:29:55.416Z,25.70
2022-09-04T14:32:33.526Z,25.70
2022-09-04T14:35:10.435Z,25.70
2022-09-04T14:38:00.383Z,25.70
2022-09-04T14:40:34.217Z,25.70
2022-09-04T14:43:10.609Z,25.70
2022-09-04T14:45:57.352Z,25.70
2022-09-04T14:48:26.062Z,25.70
2022-09-04T14:51:00.105Z,25.70
2022-09-04T14:53:31.795Z,25.70
2022-09-04T14:56:22.300Z,25.70
2022-09-04T14:58:56.426Z,25.70
2022-09-04T15:01:25.792Z,25.70
2022-09-04T15:04:00.156Z,25.70
2022-09-04T15:06:44.513Z,25.70
2022-09-04T15:09:26.332Z,25.70
2022-09-04T15:12:14.383Z,25.70
2022-09-04T15:14:48.839Z,25.70
2022-09-04T15:17:28.486Z,25.70
2022-09-04T15:20:03.410Z,25.80
2022-09-04T15:22:39.941Z,25.80
2022-09-04T15:25:10.601Z,25.80
2022-09-04T15:27:47.033Z,25.80
2022-09-04T15:30:22.098Z,25.80
2022-09-04T15:32:51.727Z,25.80
2022-09-04T15:35:26.324Z,25.80
2022-09-04T15:38:07.927Z,25.80
2022-09-04T15:40:59.604Z,25.90
2022-09-04T15:43:40.139Z,25.90
2022-09-04T15:46:18.679Z,25.90
2022-09-04T15:48:53.420Z,25.90
2022-09-04T15:51:29.263Z,25.90
2022-09-04T15:54:22.277Z,25.90
2022-09-04T15:57:01.126Z,25.90
2022-09-04T15:59:37.627Z,25.90
2022-09-04T16:02:16.851Z,25.90
2022-09-04T16:04:49.758Z,25.90
2022-09-04T16:07:34.207Z,25.90
2022-09-04T16:10:10.362Z,25.90
2022-09-04T16:12:44.349Z,25.90
2022-09-04T16:15:19.820Z,25.90
2022-09-04T16:17:54.538Z,25.90
2022-09-04T16:20:30.742Z,25.90
2022-09-04T16:23:01.638Z,25.90
2022-09-04T16:25:31.148Z,25.90
2022-09-04T16:28:04.695Z,26.00
2022-09-04T16:30:38.304Z,25.90
2022-09-04T16:33:27.382Z,25.90
2022-09-04T16:36:01.277Z,25.90
2022-09-04T16:38:35.293Z,25.90
2022-09-04T16:41:10.991Z,25.90
2022-09-04T16:43:39.414Z,25.80
2022-09-04T16:46:13.545Z,25.80
2022-09-04T16:48:53.546Z,25.80
2022-09-04T16:51:39.656Z,25.80
2022-09-04T16:54:14.192Z,25.70
2022-09-04T16:56:50.016Z,25.70
2022-09-04T16:59:27.128Z,25.60
2022-09-04T17:02:01.666Z,25.60
2022-09-04T17:04:40.191Z,25.60
2022-09-04T17:07:19.275Z,25.60
2022-09-04T17:10:02.873Z,25.60
2022-09-04T17:12:43.754Z,25.50
2022-09-04T17:15:24.172Z,25.50
2022-09-04T17:17:54.429Z,25.40
2022-09-04T17:20:38.392Z,25.40
2022-09-04T17:29:00.225Z,25.30
2022-09-04T17:29:04.063Z,25.40
2022-09-04T17:29:34.312Z,25.30
2022-09-04T17:31:57.675Z,25.20
2022-09-04T17:40:38.801Z,25.20
2022-09-04T17:40:43.205Z,25.10
2022-09-04T17:41:38.174Z,25.00
2022-09-04T17:43:43.287Z,25.00
2022-09-04T17:46:24.566Z,24.90
2022-09-04T17:48:53.474Z,24.80
2022-09-04T17:51:25.530Z,24.80
2022-09-04T17:53:57.948Z,24.70
2022-09-04T17:56:30.838Z,24.70
2022-09-04T17:59:08.108Z,24.60
2022-09-04T18:01:43.220Z,24.50
2022-09-04T18:04:27.467Z,24.50
2022-09-04T18:07:31.712Z,24.40
2022-09-04T18:10:07.939Z,24.30
2022-09-04T18:12:40.572Z,24.20
2022-09-04T18:15:33.683Z,24.20
2022-09-04T18:18:09.534Z,24.10
2022-09-04T18:20:44.353Z,24.10
2022-09-04T18:23:30.758Z,24.00
2022-09-04T18:26:09.772Z,23.90
2022-09-04T18:28:49.945Z,23.80
2022-09-04T18:37:09.816Z,23.70
2022-09-04T18:37:17.804Z,23.60
2022-09-04T18:37:46.616Z,23.60
2022-09-04T18:40:12.404Z,23.50
2022-09-04T18:49:59.211Z,23.40
2022-09-04T18:50:47.270Z,23.20
2022-09-04T18:50:53.241Z,23.30
2022-09-04T18:51:25.039Z,23.10
2022-09-04T18:53:56.895Z,23.00
2022-09-04T18:56:29.364Z,22.90
2022-09-04T18:59:03.384Z,22.90
2022-09-04T19:01:39.498Z,22.80
2022-09-04T19:04:36.046Z,22.80
2022-09-04T19:07:08.225Z,22.70
2022-09-04T19:09:59.125Z,22.70
2022-09-04T19:12:46.692Z,22.60
2022-09-04T19:15:36.972Z,22.60
2022-09-04T19:18:15.037Z,22.60
2022-09-04T19:20:49.055Z,22.60
2022-09-04T19:23:26.531Z,22.60
2022-09-04T19:25:59.970Z,22.50
2022-09-04T19:28:39.391Z,22.50
2022-09-04T19:31:16.623Z,22.40
2022-09-04T19:33:49.169Z,22.30
2022-09-04T19:36:23.692Z,22.30
2022-09-04T19:45:57.587Z,22.40
2022-09-04T19:46:02.489Z,22.40
2022-09-04T19:46:06.802Z,22.40
2022-09-04T19:48:00.917Z,22.50
2022-09-04T19:53:22.726Z,22.40
2022-09-04T19:53:42.130Z,22.50
2022-09-04T19:56:26.507Z,22.40
2022-09-04T19:58:57.837Z,22.40
2022-09-04T20:01:31.764Z,22.40
2022-09-04T20:04:05.795Z,22.30
2022-09-04T20:06:38.144Z,22.30
2022-09-04T20:09:11.802Z,22.20
2022-09-04T20:11:43.345Z,22.20
2022-09-04T20:14:21.712Z,22.20
2022-09-04T20:17:04.159Z,22.10
2022-09-04T20:19:40.546Z,22.10
2022-09-04T20:22:16.191Z,22.10
2022-09-04T20:25:01.260Z,22.10
2022-09-04T20:27:35.887Z,22.10
2022-09-04T20:30:11.911Z,22.00
2022-09-04T20:32:49.514Z,21.90
2022-09-04T20:35:35.466Z,21.90
2022-09-04T20:38:23.176Z,21.80
2022-09-04T20:40:55.482Z,21.80
2022-09-04T20:43:31.686Z,21.80
2022-09-04T20:52:38.958Z,21.70
2022-09-04T20:53:00.567Z,21.70
2022-09-04T20:53:00.570Z,21.70
2022-09-04T20:55:17.984Z,21.70
2022-09-04T21:03:08.923Z,21.60
2022-09-04T21:03:12.538Z,21.60
2022-09-04T21:04:05.381Z,21.60
2022-09-04T21:06:39.776Z,21.50
2022-09-04T21:09:20.244Z,21.40
2022-09-04T21:11:53.009Z,21.40
2022-09-04T21:14:31.993Z,21.30
2022-09-04T21:17:42.120Z,21.30
2022-09-04T21:20:51.839Z,21.20
2022-09-04T21:24:03.774Z,21.20
2022-09-04T21:26:54.712Z,21.20
2022-09-04T21:29:37.715Z,21.20
2022-09-04T21:32:30.163Z,21.10
2022-09-04T21:35:06.947Z,21.10
2022-09-04T21:37:46.702Z,21.10
2022-09-04T21:40:50.840Z,21.10
2022-09-04T21:43:41.203Z,21.00
2022-09-04T21:46:28.981Z,21.00
2022-09-04T21:49:26.760Z,20.90
2022-09-04T21:52:15.619Z,20.90
2022-09-04T21:59:13.605Z,20.80
2022-09-04T22:02:28.229Z,20.70
2022-09-04T22:02:43.809Z,20.50
2022-09-04T22:04:14.306Z,20.50
2022-09-04T22:12:40.028Z,20.50
2022-09-04T22:13:29.850Z,20.40
2022-09-04T22:13:32.584Z,20.40
2022-09-04T22:16:13.610Z,20.40
2022-09-04T22:18:59.069Z,20.40
2022-09-04T22:21:30.800Z,20.40
2022-09-04T22:24:24.713Z,20.40
2022-09-04T22:27:26.445Z,20.30
2022-09-04T22:30:06.953Z,20.30
2022-09-04T22:32:57.733Z,20.20
2022-09-04T22:36:13.257Z,20.20
2022-09-04T22:39:01.699Z,20.20
2022-09-04T22:41:54.266Z,20.10
2022-09-04T22:44:34.225Z,20.00
2022-09-04T22:47:28.933Z,19.90
2022-09-04T22:50:25.292Z,19.90
2022-09-04T22:53:32.154Z,19.90
2022-09-04T22:56:23.573Z,19.90
2022-09-04T22:59:32.465Z,19.90
2022-09-04T23:02:54.068Z,19.80
2022-09-04T23:05:48.952Z,19.80
2022-09-04T23:13:46.900Z,19.80
2022-09-04T23:13:59.557Z,19.70
2022-09-04T23:14:37.051Z,19.70
2022-09-04T23:17:23.976Z,19.70
2022-09-04T23:25:55.464Z,19.60
2022-09-04T23:26:46.818Z,19.60
2022-09-04T23:27:01.665Z,19.50
2022-09-04T23:29:51.436Z,19.40
2022-09-04T23:32:31.636Z,19.30
2022-09-04T23:35:16.431Z,19.30
2022-09-04T23:38:04.840Z,19.20
2022-09-04T23:40:43.760Z,19.20
2022-09-04T23:43:48.114Z,19.10
2022-09-04T23:46:50.455Z,19.10
2022-09-04T23:49:39.844Z,19.00
2022-09-04T23:52:20.076Z,19.00
2022-09-04T23:55:15.124Z,18.90
2022-09-04T23:57:50.907Z,18.80
